Portada
METAR-TAF:

METAR-TAF

Aeroports :

Vínnitsia, Ucraïna

latitud: 49-14-23N, longitud: 028-36-50E, altitud: 974 m

Observació

L'informe es va fer fa 35 minuts, a les 15:30 UTC
Vent 17 kt del Est
Temperatura 26°C
Humitat 58%
Pressió 1019 hPa
Visibilitat 10 km o més
Núvols disperses a una alçada de 3900 ft, Cumulonimbus.

METAR: UKWW 181530Z 08009MPS 9999 SCT039CB 26/17 Q1019 R13/0///65 NOSIG

Hora: 19:05 (16:05 UTC)

Pronòstic

L'informe es va fer fa 35 minuts, a les 15:30 UTC
Pronòstic vàlid del 18 a les 15 UTC al 18 a les 24 UTC
Vent 14 kt del Est amb ràfegues de 23 kt
Visibilitat 10 km o més
Cel ennuvolat a una alçada de 3000 ft
Temporalment
l' 18 a les 15 UTC al 18 a les 17 UTC
Visibilitat: 2100 m
Núvols disperses a una alçada de 700 ft
Cel ennuvolat a una alçada de 1500 ft, Cumulonimbus.
tempesta, pluja

TAF: UKWW 181530Z 1815/1824 10007G12MPS 9999 BKN030 TEMPO 1815/1817 2100 -TSRA SCT007 BKN015CB

Observacions i pronòstics meteorològics de més de 4000 aeroports (METAR i TAF).

Les estacions disponibles són els punts grocs i vermells al mapa.

Posi el ratolí al punt desitjat per veure el nom de l'estació.

Feu clic per veure les observacions i els pronòstics meteorològics.

Per canviar el mapa: feu clic els botons verds amb una creu de color negre per apropar; al botó verd amb un guió per allunyar la imatge; o en les fletxes verdes per a mapes adjacents.


METAR-TAF: